sensor_id;sensor_type;location;lat;lon;timestamp;P1;durP1;ratioP1;P2;durP2;ratioP2
39300;SDS011;25019;42.626;23.380;2024-02-14T00:00:17;6.27;;;4.30;;
39300;SDS011;25019;42.626;23.380;2024-02-14T00:02:46;5.97;;;4.40;;
39300;SDS011;25019;42.626;23.380;2024-02-14T00:05:15;5.80;;;4.67;;
39300;SDS011;25019;42.626;23.380;2024-02-14T00:07:41;5.23;;;4.40;;
39300;SDS011;25019;42.626;23.380;2024-02-14T00:10:07;6.70;;;4.20;;
39300;SDS011;25019;42.626;23.380;2024-02-14T00:12:36;4.33;;;3.80;;
39300;SDS011;25019;42.626;23.380;2024-02-14T00:15:05;7.83;;;4.50;;
39300;SDS011;25019;42.626;23.380;2024-02-14T00:17:32;8.17;;;5.07;;
39300;SDS011;25019;42.626;23.380;2024-02-14T00:20:02;7.20;;;4.70;;
39300;SDS011;25019;42.626;23.380;2024-02-14T00:22:29;7.00;;;4.77;;
39300;SDS011;25019;42.626;23.380;2024-02-14T00:24:55;6.57;;;4.27;;
39300;SDS011;25019;42.626;23.380;2024-02-14T00:27:21;5.17;;;4.03;;
39300;SDS011;25019;42.626;23.380;2024-02-14T00:29:47;6.00;;;4.33;;
39300;SDS011;25019;42.626;23.380;2024-02-14T00:32:13;5.13;;;4.60;;
39300;SDS011;25019;42.626;23.380;2024-02-14T00:34:39;6.03;;;4.27;;
39300;SDS011;25019;42.626;23.380;2024-02-14T00:37:05;6.37;;;4.70;;
39300;SDS011;25019;42.626;23.380;2024-02-14T00:39:31;8.53;;;5.10;;
39300;SDS011;25019;42.626;23.380;2024-02-14T00:41:56;6.50;;;4.93;;
39300;SDS011;25019;42.626;23.380;2024-02-14T00:44:22;6.20;;;4.53;;
39300;SDS011;25019;42.626;23.380;2024-02-14T00:46:48;7.77;;;4.97;;
39300;SDS011;25019;42.626;23.380;2024-02-14T00:49:14;7.40;;;4.70;;
39300;SDS011;25019;42.626;23.380;2024-02-14T00:51:40;9.33;;;4.40;;
39300;SDS011;25019;42.626;23.380;2024-02-14T00:54:06;6.20;;;4.93;;
39300;SDS011;25019;42.626;23.380;2024-02-14T00:56:32;6.80;;;4.90;;
39300;SDS011;25019;42.626;23.380;2024-02-14T00:58:57;7.63;;;4.97;;
39300;SDS011;25019;42.626;23.380;2024-02-14T01:01:24;5.30;;;4.20;;
39300;SDS011;25019;42.626;23.380;2024-02-14T01:03:50;6.47;;;4.50;;
39300;SDS011;25019;42.626;23.380;2024-02-14T01:06:16;7.90;;;5.43;;
39300;SDS011;25019;42.626;23.380;2024-02-14T01:08:43;6.00;;;4.67;;
39300;SDS011;25019;42.626;23.380;2024-02-14T01:11:09;8.20;;;5.03;;
39300;SDS011;25019;42.626;23.380;2024-02-14T01:13:36;7.50;;;4.93;;
39300;SDS011;25019;42.626;23.380;2024-02-14T01:16:02;6.33;;;4.87;;
39300;SDS011;25019;42.626;23.380;2024-02-14T01:18:29;8.10;;;5.40;;
39300;SDS011;25019;42.626;23.380;2024-02-14T01:20:55;6.07;;;4.50;;
39300;SDS011;25019;42.626;23.380;2024-02-14T01:23:24;7.57;;;5.07;;
39300;SDS011;25019;42.626;23.380;2024-02-14T01:25:50;6.97;;;4.10;;
39300;SDS011;25019;42.626;23.380;2024-02-14T01:28:16;6.67;;;4.97;;
39300;SDS011;25019;42.626;23.380;2024-02-14T01:30:42;6.13;;;4.80;;
39300;SDS011;25019;42.626;23.380;2024-02-14T01:33:08;7.40;;;5.23;;
39300;SDS011;25019;42.626;23.380;2024-02-14T01:35:34;8.97;;;5.50;;
39300;SDS011;25019;42.626;23.380;2024-02-14T01:38:00;7.40;;;5.60;;
39300;SDS011;25019;42.626;23.380;2024-02-14T01:40:28;7.87;;;5.47;;
39300;SDS011;25019;42.626;23.380;2024-02-14T01:42:54;6.63;;;5.10;;
39300;SDS011;25019;42.626;23.380;2024-02-14T01:45:20;5.37;;;4.33;;
39300;SDS011;25019;42.626;23.380;2024-02-14T01:47:47;5.83;;;4.40;;
39300;SDS011;25019;42.626;23.380;2024-02-14T01:50:15;6.27;;;4.70;;
39300;SDS011;25019;42.626;23.380;2024-02-14T01:52:41;8.87;;;5.83;;
39300;SDS011;25019;42.626;23.380;2024-02-14T01:55:09;8.47;;;5.37;;
39300;SDS011;25019;42.626;23.380;2024-02-14T01:57:37;7.83;;;5.47;;
39300;SDS011;25019;42.626;23.380;2024-02-14T02:00:04;8.37;;;5.70;;
39300;SDS011;25019;42.626;23.380;2024-02-14T02:02:37;8.23;;;5.77;;
39300;SDS011;25019;42.626;23.380;2024-02-14T02:05:11;6.87;;;5.63;;
39300;SDS011;25019;42.626;23.380;2024-02-14T02:07:37;8.23;;;6.07;;
39300;SDS011;25019;42.626;23.380;2024-02-14T02:10:08;6.73;;;5.53;;
39300;SDS011;25019;42.626;23.380;2024-02-14T02:12:37;7.33;;;5.63;;
39300;SDS011;25019;42.626;23.380;2024-02-14T02:15:06;8.10;;;5.97;;
39300;SDS011;25019;42.626;23.380;2024-02-14T02:17:36;8.33;;;4.20;;
39300;SDS011;25019;42.626;23.380;2024-02-14T02:20:01;6.77;;;5.17;;
39300;SDS011;25019;42.626;23.380;2024-02-14T02:22:27;6.93;;;4.80;;
39300;SDS011;25019;42.626;23.380;2024-02-14T02:24:57;7.67;;;5.07;;
39300;SDS011;25019;42.626;23.380;2024-02-14T02:27:24;7.33;;;5.60;;
39300;SDS011;25019;42.626;23.380;2024-02-14T02:29:49;6.53;;;4.90;;
39300;SDS011;25019;42.626;23.380;2024-02-14T02:32:15;6.53;;;4.30;;
39300;SDS011;25019;42.626;23.380;2024-02-14T02:34:43;6.87;;;5.10;;
39300;SDS011;25019;42.626;23.380;2024-02-14T02:37:13;6.33;;;5.07;;
39300;SDS011;25019;42.626;23.380;2024-02-14T02:39:39;7.83;;;5.40;;
39300;SDS011;25019;42.626;23.380;2024-02-14T02:42:04;9.20;;;5.50;;
39300;SDS011;25019;42.626;23.380;2024-02-14T02:44:31;7.67;;;4.90;;
39300;SDS011;25019;42.626;23.380;2024-02-14T02:46:56;5.87;;;4.70;;
39300;SDS011;25019;42.626;23.380;2024-02-14T02:49:22;7.23;;;4.73;;
39300;SDS011;25019;42.626;23.380;2024-02-14T02:51:48;7.27;;;5.10;;
39300;SDS011;25019;42.626;23.380;2024-02-14T02:54:13;9.40;;;5.13;;
39300;SDS011;25019;42.626;23.380;2024-02-14T02:56:39;6.63;;;4.43;;
39300;SDS011;25019;42.626;23.380;2024-02-14T02:59:06;8.43;;;5.83;;
39300;SDS011;25019;42.626;23.380;2024-02-14T03:01:35;7.23;;;5.17;;
39300;SDS011;25019;42.626;23.380;2024-02-14T03:04:01;7.10;;;5.17;;
39300;SDS011;25019;42.626;23.380;2024-02-14T03:06:27;7.37;;;5.07;;
39300;SDS011;25019;42.626;23.380;2024-02-14T03:08:53;7.70;;;5.10;;
39300;SDS011;25019;42.626;23.380;2024-02-14T03:11:21;6.60;;;5.10;;
39300;SDS011;25019;42.626;23.380;2024-02-14T03:13:47;7.30;;;5.73;;
39300;SDS011;25019;42.626;23.380;2024-02-14T03:16:14;8.23;;;5.83;;
39300;SDS011;25019;42.626;23.380;2024-02-14T03:18:43;6.47;;;4.87;;
39300;SDS011;25019;42.626;23.380;2024-02-14T03:21:09;7.20;;;5.37;;
39300;SDS011;25019;42.626;23.380;2024-02-14T03:23:37;7.07;;;5.00;;
39300;SDS011;25019;42.626;23.380;2024-02-14T03:26:02;8.17;;;5.77;;
39300;SDS011;25019;42.626;23.380;2024-02-14T03:28:32;8.20;;;5.57;;
39300;SDS011;25019;42.626;23.380;2024-02-14T03:30:58;9.63;;;4.37;;
39300;SDS011;25019;42.626;23.380;2024-02-14T03:33:24;9.80;;;5.93;;
39300;SDS011;25019;42.626;23.380;2024-02-14T03:35:50;8.10;;;5.67;;
39300;SDS011;25019;42.626;23.380;2024-02-14T03:38:28;7.33;;;5.20;;
39300;SDS011;25019;42.626;23.380;2024-02-14T03:40:54;7.40;;;5.87;;
39300;SDS011;25019;42.626;23.380;2024-02-14T03:43:19;7.80;;;6.17;;
39300;SDS011;25019;42.626;23.380;2024-02-14T03:45:47;7.83;;;5.27;;
39300;SDS011;25019;42.626;23.380;2024-02-14T03:48:12;9.13;;;5.93;;
39300;SDS011;25019;42.626;23.380;2024-02-14T03:50:39;8.43;;;5.30;;
39300;SDS011;25019;42.626;23.380;2024-02-14T03:53:04;7.93;;;5.33;;
39300;SDS011;25019;42.626;23.380;2024-02-14T03:55:30;6.80;;;4.53;;
39300;SDS011;25019;42.626;23.380;2024-02-14T03:57:56;8.03;;;5.67;;
39300;SDS011;25019;42.626;23.380;2024-02-14T04:00:22;8.67;;;5.83;;
39300;SDS011;25019;42.626;23.380;2024-02-14T04:02:48;8.00;;;4.97;;
39300;SDS011;25019;42.626;23.380;2024-02-14T04:05:15;8.67;;;5.73;;
39300;SDS011;25019;42.626;23.380;2024-02-14T04:07:41;7.90;;;5.63;;
39300;SDS011;25019;42.626;23.380;2024-02-14T04:10:09;9.90;;;5.93;;
39300;SDS011;25019;42.626;23.380;2024-02-14T04:12:35;6.70;;;5.40;;
39300;SDS011;25019;42.626;23.380;2024-02-14T04:15:01;9.13;;;5.80;;
39300;SDS011;25019;42.626;23.380;2024-02-14T04:17:26;6.80;;;5.10;;
39300;SDS011;25019;42.626;23.380;2024-02-14T04:19:52;8.20;;;5.60;;
39300;SDS011;25019;42.626;23.380;2024-02-14T04:22:18;7.33;;;4.73;;
39300;SDS011;25019;42.626;23.380;2024-02-14T04:24:44;7.47;;;4.70;;
39300;SDS011;25019;42.626;23.380;2024-02-14T04:27:10;7.63;;;5.20;;
39300;SDS011;25019;42.626;23.380;2024-02-14T04:29:35;6.17;;;4.87;;
39300;SDS011;25019;42.626;23.380;2024-02-14T04:32:02;6.13;;;5.30;;
39300;SDS011;25019;42.626;23.380;2024-02-14T04:34:28;10.17;;;5.23;;
39300;SDS011;25019;42.626;23.380;2024-02-14T04:36:55;8.50;;;6.17;;
39300;SDS011;25019;42.626;23.380;2024-02-14T04:39:21;8.40;;;5.57;;
39300;SDS011;25019;42.626;23.380;2024-02-14T04:41:47;7.83;;;5.90;;
39300;SDS011;25019;42.626;23.380;2024-02-14T04:44:15;7.60;;;6.30;;
39300;SDS011;25019;42.626;23.380;2024-02-14T04:46:40;9.77;;;6.50;;
39300;SDS011;25019;42.626;23.380;2024-02-14T04:49:09;7.93;;;6.17;;
39300;SDS011;25019;42.626;23.380;2024-02-14T04:51:35;8.20;;;5.90;;
39300;SDS011;25019;42.626;23.380;2024-02-14T04:54:00;8.80;;;6.30;;
39300;SDS011;25019;42.626;23.380;2024-02-14T04:56:26;10.90;;;7.23;;
39300;SDS011;25019;42.626;23.380;2024-02-14T04:58:53;7.53;;;5.93;;
39300;SDS011;25019;42.626;23.380;2024-02-14T05:01:20;9.30;;;6.60;;
39300;SDS011;25019;42.626;23.380;2024-02-14T05:03:46;10.40;;;6.77;;
39300;SDS011;25019;42.626;23.380;2024-02-14T05:06:11;9.90;;;6.43;;
39300;SDS011;25019;42.626;23.380;2024-02-14T05:08:37;9.00;;;6.87;;
39300;SDS011;25019;42.626;23.380;2024-02-14T05:11:03;10.83;;;6.73;;
39300;SDS011;25019;42.626;23.380;2024-02-14T05:13:30;11.97;;;6.50;;
39300;SDS011;25019;42.626;23.380;2024-02-14T05:15:56;9.73;;;6.90;;
39300;SDS011;25019;42.626;23.380;2024-02-14T05:18:22;9.47;;;6.80;;
39300;SDS011;25019;42.626;23.380;2024-02-14T05:20:48;9.60;;;6.20;;
39300;SDS011;25019;42.626;23.380;2024-02-14T05:23:14;12.97;;;7.70;;
39300;SDS011;25019;42.626;23.380;2024-02-14T05:25:43;12.00;;;7.03;;
39300;SDS011;25019;42.626;23.380;2024-02-14T05:28:09;9.37;;;5.93;;
39300;SDS011;25019;42.626;23.380;2024-02-14T05:30:39;9.53;;;7.57;;
39300;SDS011;25019;42.626;23.380;2024-02-14T05:33:05;10.73;;;7.80;;
39300;SDS011;25019;42.626;23.380;2024-02-14T05:35:31;11.80;;;6.83;;
39300;SDS011;25019;42.626;23.380;2024-02-14T05:37:57;15.83;;;8.83;;
39300;SDS011;25019;42.626;23.380;2024-02-14T05:40:23;11.60;;;7.87;;
39300;SDS011;25019;42.626;23.380;2024-02-14T05:42:49;10.27;;;7.67;;
39300;SDS011;25019;42.626;23.380;2024-02-14T05:45:15;10.83;;;7.00;;
39300;SDS011;25019;42.626;23.380;2024-02-14T05:47:42;11.87;;;8.17;;
39300;SDS011;25019;42.626;23.380;2024-02-14T05:50:08;10.93;;;7.80;;
39300;SDS011;25019;42.626;23.380;2024-02-14T05:52:35;11.17;;;7.63;;
39300;SDS011;25019;42.626;23.380;2024-02-14T05:55:01;11.43;;;8.47;;
39300;SDS011;25019;42.626;23.380;2024-02-14T05:57:27;11.63;;;7.53;;
39300;SDS011;25019;42.626;23.380;2024-02-14T05:59:53;10.17;;;7.80;;
39300;SDS011;25019;42.626;23.380;2024-02-14T06:02:19;10.30;;;8.03;;
39300;SDS011;25019;42.626;23.380;2024-02-14T06:04:45;12.03;;;8.47;;
39300;SDS011;25019;42.626;23.380;2024-02-14T06:07:10;9.60;;;6.93;;
39300;SDS011;25019;42.626;23.380;2024-02-14T06:09:37;9.30;;;6.97;;
39300;SDS011;25019;42.626;23.380;2024-02-14T06:12:03;11.73;;;7.30;;
39300;SDS011;25019;42.626;23.380;2024-02-14T06:14:28;10.27;;;6.93;;
39300;SDS011;25019;42.626;23.380;2024-02-14T06:16:56;10.07;;;7.43;;
39300;SDS011;25019;42.626;23.380;2024-02-14T06:19:25;13.67;;;8.47;;
39300;SDS011;25019;42.626;23.380;2024-02-14T06:21:51;9.67;;;7.43;;
39300;SDS011;25019;42.626;23.380;2024-02-14T06:24:16;11.43;;;7.07;;
39300;SDS011;25019;42.626;23.380;2024-02-14T06:26:44;10.60;;;6.87;;
39300;SDS011;25019;42.626;23.380;2024-02-14T06:29:13;11.27;;;7.43;;
39300;SDS011;25019;42.626;23.380;2024-02-14T06:31:38;8.87;;;6.77;;
39300;SDS011;25019;42.626;23.380;2024-02-14T06:34:04;11.83;;;7.03;;
39300;SDS011;25019;42.626;23.380;2024-02-14T06:36:32;12.67;;;8.20;;
39300;SDS011;25019;42.626;23.380;2024-02-14T06:38:58;11.53;;;6.40;;
39300;SDS011;25019;42.626;23.380;2024-02-14T06:41:23;11.83;;;7.20;;
39300;SDS011;25019;42.626;23.380;2024-02-14T06:43:49;10.53;;;7.13;;
39300;SDS011;25019;42.626;23.380;2024-02-14T06:46:15;10.33;;;6.93;;
39300;SDS011;25019;42.626;23.380;2024-02-14T06:48:41;12.23;;;7.33;;
39300;SDS011;25019;42.626;23.380;2024-02-14T06:51:07;9.97;;;6.90;;
39300;SDS011;25019;42.626;23.380;2024-02-14T06:53:33;10.30;;;5.97;;
39300;SDS011;25019;42.626;23.380;2024-02-14T06:55:58;7.83;;;6.17;;
39300;SDS011;25019;42.626;23.380;2024-02-14T06:58:24;8.37;;;6.33;;
39300;SDS011;25019;42.626;23.380;2024-02-14T07:00:50;9.77;;;6.90;;
39300;SDS011;25019;42.626;23.380;2024-02-14T07:03:16;9.13;;;6.17;;
39300;SDS011;25019;42.626;23.380;2024-02-14T07:05:41;6.93;;;4.70;;
39300;SDS011;25019;42.626;23.380;2024-02-14T07:08:07;9.20;;;6.83;;
39300;SDS011;25019;42.626;23.380;2024-02-14T07:10:33;8.00;;;6.13;;
39300;SDS011;25019;42.626;23.380;2024-02-14T07:13:00;12.97;;;7.53;;
39300;SDS011;25019;42.626;23.380;2024-02-14T07:15:25;11.63;;;6.47;;
39300;SDS011;25019;42.626;23.380;2024-02-14T07:17:54;9.17;;;6.10;;
39300;SDS011;25019;42.626;23.380;2024-02-14T07:20:20;7.50;;;5.60;;
39300;SDS011;25019;42.626;23.380;2024-02-14T07:22:46;8.27;;;5.53;;
39300;SDS011;25019;42.626;23.380;2024-02-14T07:25:13;10.70;;;5.20;;
39300;SDS011;25019;42.626;23.380;2024-02-14T07:27:39;10.13;;;6.07;;
39300;SDS011;25019;42.626;23.380;2024-02-14T07:30:05;9.03;;;6.00;;
39300;SDS011;25019;42.626;23.380;2024-02-14T07:32:31;8.93;;;5.53;;
39300;SDS011;25019;42.626;23.380;2024-02-14T07:34:57;10.00;;;6.47;;
39300;SDS011;25019;42.626;23.380;2024-02-14T07:37:22;8.60;;;5.17;;
39300;SDS011;25019;42.626;23.380;2024-02-14T07:39:49;8.33;;;5.50;;
39300;SDS011;25019;42.626;23.380;2024-02-14T07:42:14;7.80;;;5.30;;
39300;SDS011;25019;42.626;23.380;2024-02-14T07:44:40;6.20;;;4.53;;
39300;SDS011;25019;42.626;23.380;2024-02-14T07:47:06;7.93;;;4.40;;
39300;SDS011;25019;42.626;23.380;2024-02-14T07:49:32;6.70;;;5.30;;
39300;SDS011;25019;42.626;23.380;2024-02-14T07:51:57;7.23;;;5.80;;
39300;SDS011;25019;42.626;23.380;2024-02-14T07:54:23;6.40;;;4.47;;
39300;SDS011;25019;42.626;23.380;2024-02-14T07:56:49;8.20;;;5.00;;
39300;SDS011;25019;42.626;23.380;2024-02-14T07:59:14;6.77;;;5.23;;
39300;SDS011;25019;42.626;23.380;2024-02-14T08:01:40;10.87;;;5.77;;
39300;SDS011;25019;42.626;23.380;2024-02-14T08:04:07;6.90;;;5.57;;
39300;SDS011;25019;42.626;23.380;2024-02-14T08:06:33;8.23;;;5.13;;
39300;SDS011;25019;42.626;23.380;2024-02-14T08:08:59;7.27;;;4.93;;
39300;SDS011;25019;42.626;23.380;2024-02-14T08:11:28;8.43;;;5.43;;
39300;SDS011;25019;42.626;23.380;2024-02-14T08:13:54;8.50;;;5.13;;
39300;SDS011;25019;42.626;23.380;2024-02-14T08:16:20;8.20;;;5.97;;
39300;SDS011;25019;42.626;23.380;2024-02-14T08:18:45;9.23;;;6.20;;
39300;SDS011;25019;42.626;23.380;2024-02-14T08:21:11;7.27;;;4.97;;
39300;SDS011;25019;42.626;23.380;2024-02-14T08:23:37;6.93;;;5.27;;
39300;SDS011;25019;42.626;23.380;2024-02-14T08:26:05;6.00;;;5.30;;
39300;SDS011;25019;42.626;23.380;2024-02-14T08:28:38;7.10;;;5.33;;
39300;SDS011;25019;42.626;23.380;2024-02-14T08:31:09;6.83;;;5.27;;
39300;SDS011;25019;42.626;23.380;2024-02-14T08:33:36;7.07;;;5.93;;
39300;SDS011;25019;42.626;23.380;2024-02-14T08:36:02;7.83;;;5.70;;
39300;SDS011;25019;42.626;23.380;2024-02-14T08:38:29;6.70;;;5.07;;
39300;SDS011;25019;42.626;23.380;2024-02-14T08:40:55;6.90;;;5.13;;
39300;SDS011;25019;42.626;23.380;2024-02-14T08:43:21;7.97;;;4.83;;
39300;SDS011;25019;42.626;23.380;2024-02-14T08:45:50;8.23;;;5.27;;
39300;SDS011;25019;42.626;23.380;2024-02-14T08:48:17;8.57;;;5.87;;
39300;SDS011;25019;42.626;23.380;2024-02-14T08:50:44;6.30;;;4.30;;
39300;SDS011;25019;42.626;23.380;2024-02-14T08:53:11;9.40;;;6.03;;
39300;SDS011;25019;42.626;23.380;2024-02-14T08:55:39;7.20;;;5.33;;
39300;SDS011;25019;42.626;23.380;2024-02-14T08:58:05;7.00;;;5.20;;
39300;SDS011;25019;42.626;23.380;2024-02-14T09:00:31;11.90;;;4.50;;
39300;SDS011;25019;42.626;23.380;2024-02-14T09:03:00;6.70;;;5.07;;
39300;SDS011;25019;42.626;23.380;2024-02-14T09:05:26;10.47;;;5.43;;
39300;SDS011;25019;42.626;23.380;2024-02-14T09:07:53;9.40;;;6.23;;
39300;SDS011;25019;42.626;23.380;2024-02-14T09:10:19;7.73;;;5.63;;
39300;SDS011;25019;42.626;23.380;2024-02-14T09:12:46;6.20;;;4.53;;
39300;SDS011;25019;42.626;23.380;2024-02-14T09:15:11;7.27;;;5.20;;
39300;SDS011;25019;42.626;23.380;2024-02-14T09:17:37;6.83;;;4.40;;
39300;SDS011;25019;42.626;23.380;2024-02-14T09:20:05;7.20;;;4.00;;
39300;SDS011;25019;42.626;23.380;2024-02-14T09:22:36;7.40;;;4.57;;
39300;SDS011;25019;42.626;23.380;2024-02-14T09:25:02;7.33;;;4.70;;
39300;SDS011;25019;42.626;23.380;2024-02-14T09:27:34;6.00;;;5.07;;
39300;SDS011;25019;42.626;23.380;2024-02-14T09:30:00;7.50;;;5.20;;
39300;SDS011;25019;42.626;23.380;2024-02-14T09:32:29;6.90;;;5.03;;
39300;SDS011;25019;42.626;23.380;2024-02-14T09:34:58;8.57;;;5.83;;
39300;SDS011;25019;42.626;23.380;2024-02-14T09:37:25;7.37;;;5.83;;
39300;SDS011;25019;42.626;23.380;2024-02-14T09:39:51;4.97;;;4.17;;
39300;SDS011;25019;42.626;23.380;2024-02-14T09:42:18;5.97;;;4.57;;
39300;SDS011;25019;42.626;23.380;2024-02-14T09:44:51;7.83;;;4.73;;
39300;SDS011;25019;42.626;23.380;2024-02-14T09:47:22;7.23;;;5.43;;
39300;SDS011;25019;42.626;23.380;2024-02-14T09:49:48;6.23;;;4.53;;
39300;SDS011;25019;42.626;23.380;2024-02-14T09:52:17;7.53;;;5.90;;
39300;SDS011;25019;42.626;23.380;2024-02-14T09:54:45;7.63;;;6.07;;
39300;SDS011;25019;42.626;23.380;2024-02-14T09:57:11;6.53;;;5.27;;
39300;SDS011;25019;42.626;23.380;2024-02-14T09:59:38;8.13;;;5.40;;
39300;SDS011;25019;42.626;23.380;2024-02-14T10:02:05;6.43;;;4.93;;
39300;SDS011;25019;42.626;23.380;2024-02-14T10:04:31;7.10;;;5.50;;
39300;SDS011;25019;42.626;23.380;2024-02-14T10:06:56;7.97;;;5.50;;
39300;SDS011;25019;42.626;23.380;2024-02-14T10:09:22;7.10;;;5.33;;
39300;SDS011;25019;42.626;23.380;2024-02-14T10:12:07;7.60;;;4.90;;
39300;SDS011;25019;42.626;23.380;2024-02-14T10:14:36;6.53;;;5.33;;
39300;SDS011;25019;42.626;23.380;2024-02-14T10:17:05;7.87;;;4.90;;
39300;SDS011;25019;42.626;23.380;2024-02-14T10:19:33;8.17;;;4.83;;
39300;SDS011;25019;42.626;23.380;2024-02-14T10:22:00;7.87;;;4.97;;
39300;SDS011;25019;42.626;23.380;2024-02-14T10:24:28;6.93;;;5.37;;
39300;SDS011;25019;42.626;23.380;2024-02-14T10:26:56;10.33;;;5.60;;
39300;SDS011;25019;42.626;23.380;2024-02-14T10:29:26;6.80;;;5.20;;
39300;SDS011;25019;42.626;23.380;2024-02-14T10:31:52;7.23;;;5.57;;
39300;SDS011;25019;42.626;23.380;2024-02-14T10:34:18;8.47;;;5.60;;
39300;SDS011;25019;42.626;23.380;2024-02-14T10:36:45;6.73;;;5.10;;
39300;SDS011;25019;42.626;23.380;2024-02-14T10:39:12;9.77;;;6.13;;
39300;SDS011;25019;42.626;23.380;2024-02-14T10:41:40;6.93;;;5.13;;
39300;SDS011;25019;42.626;23.380;2024-02-14T10:44:06;8.57;;;5.60;;
39300;SDS011;25019;42.626;23.380;2024-02-14T10:46:33;11.23;;;5.73;;
39300;SDS011;25019;42.626;23.380;2024-02-14T10:49:02;7.20;;;5.47;;
39300;SDS011;25019;42.626;23.380;2024-02-14T10:51:33;7.70;;;5.13;;
39300;SDS011;25019;42.626;23.380;2024-02-14T10:54:00;7.80;;;4.80;;
39300;SDS011;25019;42.626;23.380;2024-02-14T10:56:31;6.37;;;4.83;;
39300;SDS011;25019;42.626;23.380;2024-02-14T10:58:57;7.17;;;5.20;;
39300;SDS011;25019;42.626;23.380;2024-02-14T11:01:29;7.63;;;4.93;;
39300;SDS011;25019;42.626;23.380;2024-02-14T11:03:58;8.20;;;5.13;;
39300;SDS011;25019;42.626;23.380;2024-02-14T11:06:26;6.07;;;5.00;;
39300;SDS011;25019;42.626;23.380;2024-02-14T11:08:58;6.87;;;5.27;;
39300;SDS011;25019;42.626;23.380;2024-02-14T11:11:28;8.67;;;5.03;;
39300;SDS011;25019;42.626;23.380;2024-02-14T11:13:55;5.83;;;4.60;;
39300;SDS011;25019;42.626;23.380;2024-02-14T11:16:25;5.83;;;4.07;;
39300;SDS011;25019;42.626;23.380;2024-02-14T11:19:10;6.13;;;4.37;;
39300;SDS011;25019;42.626;23.380;2024-02-14T11:21:46;7.07;;;5.17;;
39300;SDS011;25019;42.626;23.380;2024-02-14T11:24:14;5.70;;;4.17;;
39300;SDS011;25019;42.626;23.380;2024-02-14T11:29:14;7.20;;;4.90;;
39300;SDS011;25019;42.626;23.380;2024-02-14T11:31:44;8.10;;;5.37;;
39300;SDS011;25019;42.626;23.380;2024-02-14T11:34:14;7.87;;;4.23;;
39300;SDS011;25019;42.626;23.380;2024-02-14T11:36:44;7.20;;;3.90;;
39300;SDS011;25019;42.626;23.380;2024-02-14T11:39:10;5.87;;;4.73;;
39300;SDS011;25019;42.626;23.380;2024-02-14T11:41:39;6.17;;;4.17;;
39300;SDS011;25019;42.626;23.380;2024-02-14T11:44:07;8.10;;;5.13;;
39300;SDS011;25019;42.626;23.380;2024-02-14T11:46:34;8.27;;;5.07;;
39300;SDS011;25019;42.626;23.380;2024-02-14T11:49:03;6.13;;;4.43;;
39300;SDS011;25019;42.626;23.380;2024-02-14T11:51:31;5.67;;;4.73;;
39300;SDS011;25019;42.626;23.380;2024-02-14T11:54:00;6.57;;;4.50;;
39300;SDS011;25019;42.626;23.380;2024-02-14T11:56:33;9.17;;;4.33;;
39300;SDS011;25019;42.626;23.380;2024-02-14T11:59:06;5.77;;;4.20;;
39300;SDS011;25019;42.626;23.380;2024-02-14T12:01:33;6.23;;;4.13;;
39300;SDS011;25019;42.626;23.380;2024-02-14T12:04:04;6.43;;;4.40;;
39300;SDS011;25019;42.626;23.380;2024-02-14T12:06:34;6.53;;;4.30;;
39300;SDS011;25019;42.626;23.380;2024-02-14T12:09:03;5.20;;;4.13;;
39300;SDS011;25019;42.626;23.380;2024-02-14T12:11:33;6.10;;;4.73;;
39300;SDS011;25019;42.626;23.380;2024-02-14T12:14:03;6.77;;;4.50;;
39300;SDS011;25019;42.626;23.380;2024-02-14T12:16:30;5.17;;;4.17;;
39300;SDS011;25019;42.626;23.380;2024-02-14T12:19:03;6.63;;;4.57;;
39300;SDS011;25019;42.626;23.380;2024-02-14T12:21:38;5.80;;;4.43;;
39300;SDS011;25019;42.626;23.380;2024-02-14T12:24:08;5.00;;;3.77;;
39300;SDS011;25019;42.626;23.380;2024-02-14T12:26:35;8.83;;;4.70;;
39300;SDS011;25019;42.626;23.380;2024-02-14T12:29:03;7.50;;;4.23;;
39300;SDS011;25019;42.626;23.380;2024-02-14T12:31:29;5.60;;;4.20;;
39300;SDS011;25019;42.626;23.380;2024-02-14T12:33:58;6.50;;;4.97;;
39300;SDS011;25019;42.626;23.380;2024-02-14T12:36:28;6.03;;;4.67;;
39300;SDS011;25019;42.626;23.380;2024-02-14T12:38:57;5.63;;;3.97;;
39300;SDS011;25019;42.626;23.380;2024-02-14T12:41:22;6.67;;;5.03;;
39300;SDS011;25019;42.626;23.380;2024-02-14T12:43:49;7.10;;;4.17;;
39300;SDS011;25019;42.626;23.380;2024-02-14T12:46:15;12.93;;;4.20;;
39300;SDS011;25019;42.626;23.380;2024-02-14T12:48:41;5.47;;;4.10;;
39300;SDS011;25019;42.626;23.380;2024-02-14T12:51:07;4.97;;;3.93;;
39300;SDS011;25019;42.626;23.380;2024-02-14T12:53:33;5.47;;;4.13;;
39300;SDS011;25019;42.626;23.380;2024-02-14T12:55:59;5.40;;;3.73;;
39300;SDS011;25019;42.626;23.380;2024-02-14T12:58:25;9.90;;;4.83;;
39300;SDS011;25019;42.626;23.380;2024-02-14T13:00:51;4.57;;;3.20;;
39300;SDS011;25019;42.626;23.380;2024-02-14T13:03:16;6.50;;;4.60;;
39300;SDS011;25019;42.626;23.380;2024-02-14T13:05:42;5.53;;;4.03;;
39300;SDS011;25019;42.626;23.380;2024-02-14T13:08:08;5.93;;;4.60;;
39300;SDS011;25019;42.626;23.380;2024-02-14T13:10:36;6.27;;;4.43;;
39300;SDS011;25019;42.626;23.380;2024-02-14T13:13:02;11.47;;;4.27;;
39300;SDS011;25019;42.626;23.380;2024-02-14T13:15:29;7.70;;;4.40;;
39300;SDS011;25019;42.626;23.380;2024-02-14T13:17:55;7.03;;;4.30;;
39300;SDS011;25019;42.626;23.380;2024-02-14T13:20:23;6.23;;;4.20;;
39300;SDS011;25019;42.626;23.380;2024-02-14T13:22:49;7.03;;;4.07;;
39300;SDS011;25019;42.626;23.380;2024-02-14T13:25:15;5.17;;;4.17;;
39300;SDS011;25019;42.626;23.380;2024-02-14T13:27:40;5.60;;;4.20;;
39300;SDS011;25019;42.626;23.380;2024-02-14T13:30:06;8.20;;;4.33;;
39300;SDS011;25019;42.626;23.380;2024-02-14T13:32:32;7.40;;;3.90;;
39300;SDS011;25019;42.626;23.380;2024-02-14T13:34:58;8.33;;;4.50;;
39300;SDS011;25019;42.626;23.380;2024-02-14T13:37:24;6.50;;;3.93;;
39300;SDS011;25019;42.626;23.380;2024-02-14T13:39:51;6.93;;;4.00;;
39300;SDS011;25019;42.626;23.380;2024-02-14T13:42:17;8.47;;;5.00;;
39300;SDS011;25019;42.626;23.380;2024-02-14T13:44:42;6.20;;;3.80;;
39300;SDS011;25019;42.626;23.380;2024-02-14T13:47:08;6.20;;;3.97;;
39300;SDS011;25019;42.626;23.380;2024-02-14T13:49:37;5.40;;;3.60;;
39300;SDS011;25019;42.626;23.380;2024-02-14T13:52:03;7.13;;;4.03;;
39300;SDS011;25019;42.626;23.380;2024-02-14T13:54:28;5.47;;;4.03;;
39300;SDS011;25019;42.626;23.380;2024-02-14T13:56:54;6.60;;;4.70;;
39300;SDS011;25019;42.626;23.380;2024-02-14T13:59:21;6.93;;;4.53;;
39300;SDS011;25019;42.626;23.380;2024-02-14T14:01:47;8.37;;;4.60;;
39300;SDS011;25019;42.626;23.380;2024-02-14T14:04:13;5.73;;;4.73;;
39300;SDS011;25019;42.626;23.380;2024-02-14T14:06:39;7.70;;;4.70;;
39300;SDS011;25019;42.626;23.380;2024-02-14T14:09:05;9.53;;;5.07;;
39300;SDS011;25019;42.626;23.380;2024-02-14T14:11:33;6.67;;;4.17;;
39300;SDS011;25019;42.626;23.380;2024-02-14T14:13:59;7.83;;;5.07;;
39300;SDS011;25019;42.626;23.380;2024-02-14T14:16:25;9.20;;;4.10;;
39300;SDS011;25019;42.626;23.380;2024-02-14T14:18:51;8.50;;;4.73;;
39300;SDS011;25019;42.626;23.380;2024-02-14T14:21:17;6.13;;;4.83;;
39300;SDS011;25019;42.626;23.380;2024-02-14T14:23:44;5.53;;;4.30;;
39300;SDS011;25019;42.626;23.380;2024-02-14T14:26:09;6.10;;;4.10;;
39300;SDS011;25019;42.626;23.380;2024-02-14T14:28:36;9.00;;;4.60;;
39300;SDS011;25019;42.626;23.380;2024-02-14T14:31:01;7.33;;;4.67;;
39300;SDS011;25019;42.626;23.380;2024-02-14T14:33:27;6.53;;;4.13;;